Accueil
METAR-TAF:

METAR-TAF

Aéroports :

Aéroport de Jersey

Jersey,

latitude: 49-13N, longitude: 002-12W, altitude: 84 m

Observation

Le bulletin a été fait il y a 35 minutes, à 18:50 UTC
Vent 5 kt de nord-est, variant entre nord/nord-est et est
Température 13°C
Humidité 82%
Pression 1027 hPa
Visibilité 10 km ou plus
pas de nuages en-dessous de 1500 mètres et pas de cumulonimbus.

METAR: EGJJ 191850Z 05005KT 020V080 CAVOK 13/10 Q1027

Heure: 20:25 (19:25 UTC)

Prévision

Le bulletin a été fait il y a 2 heures et 30 minutes, à 16:55 UTC
Prévision valable du 19 à 18 UTC au 20 à 03 UTC
Vent 9 kt de est/nord-est
Visibilité 10 km ou plus
Quelques nuages à une hauteur de 1500 ft

TAF: EGJJ 191655Z 1918/2003 06009KT 9999 FEW015

Observations et prévisions météorologiques de plus de 4000 aéroports (messages METAR et TAF).

Les stations disponibles sont représentées par des disques jaunes et rouges sur la carte.

Passer la souris dessus pour voir le nom de la station.

Cliquer dessus pour voir les observations et prévisions météorologiques.

Pour changer de carte: cliquez sur les boutons verts avec une croix noire pour zoomer, sur le bouton vert avec un tiret pour effectuer un zoom arrière, ou sur les flèches vertes pour les cartes adjacentes.


METAR-TAF: